Time;durP1;ratioP1;P1;durP2;ratioP2;P2;SDS_P1;SDS_P2;PMS_P1;PMS_P2;Temp;Humidity;BMP_temperature;BMP_pressure;BME280_temperature;BME280_humidity;BME280_pressure;Samples;Min_cycle;Max_cycle;Signal;HPM_P1;HPM_P2
2022/12/28 00:01:13;;;;;;;6.83;5.20;;;;;;;;;;5043996;27;88148;-57
2022/12/28 00:03:43;;;;;;;7.97;5.07;;;;;;;;;;5066140;27;87525;-57
2022/12/28 00:06:12;;;;;;;5.37;4.40;;;;;;;;;;5064390;27;87000;-59
2022/12/28 00:08:40;;;;;;;8.70;4.70;;;;;;;;;;5063223;27;87192;-57
2022/12/28 00:11:09;;;;;;;5.57;3.90;;;;;;;;;;5063239;27;88100;-57
2022/12/28 00:13:51;;;;;;;5.90;3.67;;;;;;;;;;5063849;27;87848;-57
2022/12/28 00:16:21;;;;;;;7.87;4.80;;;;;;;;;;5066758;27;87051;-57
2022/12/28 00:18:51;;;;;;;3.33;3.03;;;;;;;;;;5062993;27;87084;-57
2022/12/28 00:21:19;;;;;;;6.13;3.27;;;;;;;;;;5070157;27;90248;-58
2022/12/28 00:23:49;;;;;;;5.13;3.10;;;;;;;;;;5076630;27;89791;-57
2022/12/28 00:26:17;;;;;;;5.00;3.17;;;;;;;;;;5066165;27;87538;-58
2022/12/28 00:28:45;;;;;;;3.80;2.60;;;;;;;;;;5063426;27;87018;-57
2022/12/28 00:31:14;;;;;;;3.67;3.00;;;;;;;;;;5062976;27;89183;-57
2022/12/28 00:33:42;;;;;;;3.43;3.10;;;;;;;;;;5062790;27;88837;-57
2022/12/28 00:36:13;;;;;;;3.10;2.23;;;;;;;;;;5064259;27;88714;-57
2022/12/28 00:38:41;;;;;;;3.97;2.27;;;;;;;;;;5063535;27;86369;-56
2022/12/28 00:41:09;;;;;;;3.70;2.53;;;;;;;;;;5068446;27;89071;-56
2022/12/28 00:43:38;;;;;;;2.50;2.23;;;;;;;;;;5081606;27;90046;-57
2022/12/28 00:46:06;;;;;;;3.77;2.03;;;;;;;;;;5073476;27;89393;-57
2022/12/28 00:48:34;;;;;;;3.10;1.97;;;;;;;;;;5078558;27;87047;-57
2022/12/28 00:51:03;;;;;;;2.23;2.03;;;;;;;;;;5065583;27;88046;-57
2022/12/28 00:53:33;;;;;;;2.60;1.70;;;;;;;;;;5069535;27;89074;-57
2022/12/28 00:56:05;;;;;;;2.43;1.67;;;;;;;;;;5083444;27;87005;-57
2022/12/28 00:58:33;;;;;;;5.10;2.17;;;;;;;;;;5066128;27;87012;-57
2022/12/28 01:01:01;;;;;;;1.87;1.63;;;;;;;;;;5063396;27;88115;-57
2022/12/28 01:03:30;;;;;;;4.07;1.73;;;;;;;;;;5063866;27;88772;-57
2022/12/28 01:05:58;;;;;;;1.37;1.27;;;;;;;;;;5062266;27;86897;-57
2022/12/28 01:08:26;;;;;;;4.57;1.70;;;;;;;;;;5062505;27;87280;-57
2022/12/28 01:10:56;;;;;;;1.50;1.10;;;;;;;;;;5076832;27;89034;-58
2022/12/28 01:13:24;;;;;;;1.93;1.43;;;;;;;;;;5082575;27;88660;-57
2022/12/28 01:15:53;;;;;;;1.90;0.83;;;;;;;;;;5079828;27;87087;-57
2022/12/28 01:18:21;;;;;;;1.20;1.10;;;;;;;;;;5075427;27;87046;-57
2022/12/28 01:20:49;;;;;;;1.83;1.50;;;;;;;;;;5065055;27;88261;-57
2022/12/28 01:23:18;;;;;;;1.90;1.07;;;;;;;;;;5082562;27;88835;-57
2022/12/28 01:25:46;;;;;;;1.33;1.03;;;;;;;;;;5065249;27;87196;-57
2022/12/28 01:28:16;;;;;;;1.23;1.13;;;;;;;;;;5076712;27;86425;-57
2022/12/28 01:30:44;;;;;;;1.53;1.20;;;;;;;;;;5062054;27;89166;-57
2022/12/28 01:33:12;;;;;;;0.77;0.77;;;;;;;;;;5061961;27;87774;-57
2022/12/28 01:35:41;;;;;;;1.60;1.00;;;;;;;;;;5061109;27;87875;-57
2022/12/28 01:38:09;;;;;;;2.97;1.37;;;;;;;;;;5063296;27;87063;-57
2022/12/28 01:40:37;;;;;;;2.10;1.17;;;;;;;;;;5061394;27;87738;-58
2022/12/28 01:43:07;;;;;;;1.43;0.90;;;;;;;;;;5069985;27;87420;-57
2022/12/28 01:45:37;;;;;;;1.00;0.87;;;;;;;;;;5079037;27;87086;-57
2022/12/28 01:48:05;;;;;;;1.13;0.90;;;;;;;;;;5068474;27;87050;-58
2022/12/28 01:50:34;;;;;;;0.90;0.90;;;;;;;;;;5078539;27;88140;-57
2022/12/28 01:53:03;;;;;;;0.93;0.70;;;;;;;;;;5075713;27;88322;-57
2022/12/28 01:55:31;;;;;;;1.70;1.00;;;;;;;;;;5071273;27;86998;-57
2022/12/28 01:58:00;;;;;;;0.97;0.87;;;;;;;;;;5069271;27;87099;-57
2022/12/28 02:00:29;;;;;;;1.27;1.00;;;;;;;;;;5076952;27;90198;-58
2022/12/28 02:02:59;;;;;;;1.80;0.93;;;;;;;;;;5061718;27;88830;-57
2022/12/28 02:05:28;;;;;;;0.60;0.60;;;;;;;;;;5070300;27;86939;-57
2022/12/28 02:07:58;;;;;;;3.40;1.63;;;;;;;;;;5082302;27;87131;-57
2022/12/28 02:10:26;;;;;;;1.37;1.10;;;;;;;;;;5066779;27;88226;-57
2022/12/28 02:13:12;;;;;;;1.43;0.87;;;;;;;;;;5075812;27;88979;-57
2022/12/28 02:15:41;;;;;;;1.47;0.80;;;;;;;;;;5066490;27;87329;-58
2022/12/28 02:18:10;;;;;;;1.23;1.00;;;;;;;;;;5071558;27;86415;-57
2022/12/28 02:20:41;;;;;;;1.20;0.80;;;;;;;;;;5077423;27;89130;-57
2022/12/28 02:23:24;;;;;;;1.40;1.00;;;;;;;;;;5061098;27;87687;-57
2022/12/28 02:26:02;;;;;;;2.00;0.90;;;;;;;;;;5061186;27;88008;-57
2022/12/28 02:28:49;;;;;;;3.77;1.17;;;;;;;;;;5066702;27;87020;-57
2022/12/28 02:31:19;;;;;;;1.10;1.10;;;;;;;;;;5072514;27;87713;-57
2022/12/28 02:33:50;;;;;;;1.63;0.90;;;;;;;;;;5072965;27;87364;-57
2022/12/28 02:36:18;;;;;;;1.90;1.10;;;;;;;;;;5070533;27;87085;-58
2022/12/28 02:38:48;;;;;;;0.80;0.80;;;;;;;;;;5080005;27;87107;-58
2022/12/28 02:41:16;;;;;;;1.20;1.10;;;;;;;;;;5076414;27;88357;-58
2022/12/28 02:43:45;;;;;;;1.50;1.03;;;;;;;;;;5067483;27;87774;-57
2022/12/28 02:51:59;;;;;;;0.90;0.73;;;;;;;;;;5064917;27;89207;-58
2022/12/28 02:57:24;;;;;;;0.87;0.80;;;;;;;;;;5058055;27;86759;-58
2022/12/28 02:59:58;;;;;;;1.87;0.63;;;;;;;;;;5061973;27;87028;-58
2022/12/28 03:03:00;;;;;;;2.37;0.77;;;;;;;;;;5061484;27;89345;-58
2022/12/28 03:08:20;;;;;;;0.80;0.80;;;;;;;;;;4979276;28;87108;-58
2022/12/28 03:10:50;;;;;;;1.07;0.97;;;;;;;;;;5030807;27;86068;-58
2022/12/28 03:16:07;;;;;;;0.60;0.40;;;;;;;;;;5061707;27;87758;-58
2022/12/28 03:32:27;;;;;;;0.40;0.40;;;;;;;;;;5061675;27;86875;-58
2022/12/28 03:34:55;;;;;;;2.67;0.60;;;;;;;;;;5061530;27;89224;-58
2022/12/28 03:37:25;;;;;;;1.10;0.63;;;;;;;;;;5061214;27;86556;-58
2022/12/28 03:39:54;;;;;;;0.93;0.67;;;;;;;;;;5061913;27;86892;-58
2022/12/28 03:45:10;;;;;;;1.87;0.60;;;;;;;;;;5060722;27;89094;-58
2022/12/28 03:47:39;;;;;;;0.73;0.70;;;;;;;;;;5060880;27;88758;-58
2022/12/28 03:50:07;;;;;;;1.13;0.70;;;;;;;;;;5060803;27;86904;-58
2022/12/28 03:52:37;;;;;;;1.03;0.50;;;;;;;;;;5060797;27;87016;-58
2022/12/28 03:55:06;;;;;;;0.70;0.70;;;;;;;;;;5061240;27;88298;-58
2022/12/28 03:57:34;;;;;;;0.63;0.40;;;;;;;;;;5060653;27;88829;-58
2022/12/28 04:00:02;;;;;;;1.00;0.80;;;;;;;;;;5061031;27;87148;-58
2022/12/28 04:02:30;;;;;;;1.90;0.73;;;;;;;;;;5061224;27;86291;-58
2022/12/28 04:04:59;;;;;;;0.60;0.60;;;;;;;;;;5059361;27;89274;-59
2022/12/28 04:07:28;;;;;;;0.47;0.40;;;;;;;;;;5060520;27;87772;-58
2022/12/28 04:09:58;;;;;;;1.70;0.70;;;;;;;;;;5062566;27;88002;-58
2022/12/28 04:12:26;;;;;;;1.43;0.70;;;;;;;;;;5063916;27;87036;-58
2022/12/28 04:14:54;;;;;;;0.90;0.70;;;;;;;;;;5063488;27;89204;-58
2022/12/28 04:17:23;;;;;;;0.87;0.60;;;;;;;;;;5063965;27;88915;-58
2022/12/28 04:19:51;;;;;;;2.97;0.60;;;;;;;;;;5064380;27;87471;-58
2022/12/28 04:22:19;;;;;;;0.73;0.50;;;;;;;;;;5064225;27;87011;-57
2022/12/28 04:24:47;;;;;;;1.00;0.53;;;;;;;;;;5064059;27;89212;-57
2022/12/28 04:27:17;;;;;;;1.23;0.50;;;;;;;;;;5064237;27;88843;-58
2022/12/28 04:29:45;;;;;;;2.63;0.90;;;;;;;;;;5064427;27;86925;-58
2022/12/28 04:32:14;;;;;;;0.73;0.70;;;;;;;;;;5064493;27;87044;-57
2022/12/28 04:34:42;;;;;;;0.67;0.60;;;;;;;;;;5062916;27;89519;-58
2022/12/28 04:37:16;;;;;;;1.23;0.50;;;;;;;;;;5063572;27;88553;-58
2022/12/28 04:39:44;;;;;;;0.87;0.80;;;;;;;;;;5063991;27;87000;-58
2022/12/28 04:42:25;;;;;;;1.80;0.90;;;;;;;;;;5064403;27;87056;-58
2022/12/28 04:44:53;;;;;;;1.73;0.70;;;;;;;;;;5064057;27;88287;-58
2022/12/28 04:47:22;;;;;;;0.60;0.60;;;;;;;;;;5063920;27;87753;-58
2022/12/28 04:49:50;;;;;;;1.70;0.60;;;;;;;;;;5063595;27;86819;-58
2022/12/28 04:52:18;;;;;;;0.63;0.60;;;;;;;;;;5063785;27;86288;-58
2022/12/28 04:54:47;;;;;;;1.20;1.07;;;;;;;;;;5063761;27;87151;-58
2022/12/28 04:57:15;;;;;;;0.50;0.50;;;;;;;;;;5063402;27;88136;-59
2022/12/28 04:59:44;;;;;;;0.40;0.40;;;;;;;;;;5063339;27;88921;-59
2022/12/28 05:02:13;;;;;;;0.50;0.50;;;;;;;;;;5063727;27;87160;-59
2022/12/28 05:04:41;;;;;;;1.90;0.83;;;;;;;;;;5063167;27;89078;-59
2022/12/28 05:07:09;;;;;;;0.57;0.57;;;;;;;;;;5063379;27;88873;-58
2022/12/28 05:09:38;;;;;;;0.60;0.60;;;;;;;;;;5063443;27;86852;-59
2022/12/28 05:12:06;;;;;;;0.40;0.40;;;;;;;;;;5063598;27;87039;-59
2022/12/28 05:14:34;;;;;;;1.47;0.60;;;;;;;;;;5063637;27;89084;-58
2022/12/28 05:17:06;;;;;;;0.33;0.33;;;;;;;;;;5063880;27;88879;-59
2022/12/28 05:19:34;;;;;;;1.03;0.50;;;;;;;;;;5062527;27;87211;-58
2022/12/28 05:22:02;;;;;;;0.53;0.53;;;;;;;;;;5062819;27;86983;-59
2022/12/28 05:24:31;;;;;;;0.50;0.50;;;;;;;;;;5062698;27;90015;-59
2022/12/28 05:27:00;;;;;;;0.50;0.50;;;;;;;;;;5063351;27;88894;-59
2022/12/28 05:29:28;;;;;;;0.30;0.30;;;;;;;;;;5063754;27;87003;-59
2022/12/28 05:31:57;;;;;;;0.50;0.50;;;;;;;;;;5063176;27;86921;-59
2022/12/28 05:34:26;;;;;;;0.60;0.60;;;;;;;;;;5062819;27;88171;-58
2022/12/28 05:36:55;;;;;;;0.90;0.60;;;;;;;;;;5062577;27;87886;-59
2022/12/28 05:39:23;;;;;;;0.60;0.47;;;;;;;;;;5063289;27;87013;-58
2022/12/28 05:41:51;;;;;;;1.17;0.80;;;;;;;;;;5063354;27;86096;-59
2022/12/28 05:44:20;;;;;;;0.70;0.50;;;;;;;;;;5062906;27;89098;-59
2022/12/28 05:46:48;;;;;;;0.73;0.43;;;;;;;;;;5063026;27;87832;-59
2022/12/28 05:49:17;;;;;;;0.30;0.30;;;;;;;;;;5062161;27;87896;-59
2022/12/28 05:51:46;;;;;;;0.90;0.50;;;;;;;;;;5062851;27;87127;-59
2022/12/28 05:54:14;;;;;;;0.90;0.40;;;;;;;;;;5062760;27;88157;-59
2022/12/28 05:56:43;;;;;;;2.13;0.50;;;;;;;;;;5062711;27;89310;-59
2022/12/28 05:59:12;;;;;;;0.50;0.50;;;;;;;;;;5062872;27;87023;-59
2022/12/28 06:01:40;;;;;;;0.30;0.30;;;;;;;;;;5063244;27;86980;-59
2022/12/28 06:04:09;;;;;;;1.90;0.67;;;;;;;;;;5062735;27;89083;-59
2022/12/28 06:06:38;;;;;;;2.77;0.60;;;;;;;;;;5062802;27;87546;-59
2022/12/28 06:09:07;;;;;;;0.83;0.57;;;;;;;;;;5063157;27;87043;-59
2022/12/28 06:11:35;;;;;;;0.40;0.40;;;;;;;;;;5063141;27;86829;-59
2022/12/28 06:14:04;;;;;;;0.57;0.57;;;;;;;;;;5061737;27;90148;-59
2022/12/28 06:16:33;;;;;;;0.30;0.30;;;;;;;;;;5062080;27;89221;-59
2022/12/28 06:19:04;;;;;;;0.43;0.40;;;;;;;;;;5062454;27;87039;-59
2022/12/28 06:21:32;;;;;;;0.50;0.50;;;;;;;;;;5062206;27;87035;-59
2022/12/28 06:24:01;;;;;;;0.40;0.40;;;;;;;;;;5061805;27;88726;-59
2022/12/28 06:26:31;;;;;;;0.50;0.37;;;;;;;;;;5062208;27;88969;-59
2022/12/28 06:29:00;;;;;;;0.40;0.40;;;;;;;;;;5062412;27;87093;-59
2022/12/28 06:31:29;;;;;;;1.40;0.70;;;;;;;;;;5061842;27;86296;-59
2022/12/28 06:33:58;;;;;;;0.40;0.40;;;;;;;;;;5062042;27;88079;-59
2022/12/28 06:36:26;;;;;;;0.50;0.50;;;;;;;;;;5061775;27;88823;-59
2022/12/28 06:38:55;;;;;;;0.50;0.50;;;;;;;;;;5062206;27;87722;-59
2022/12/28 06:41:23;;;;;;;0.57;0.50;;;;;;;;;;5062559;27;86913;-59
2022/12/28 06:43:53;;;;;;;0.40;0.40;;;;;;;;;;5061778;27;88033;-59
2022/12/28 06:46:22;;;;;;;0.60;0.60;;;;;;;;;;5061969;27;87003;-59
2022/12/28 06:48:51;;;;;;;0.40;0.40;;;;;;;;;;5061575;27;86982;-59
2022/12/28 06:51:19;;;;;;;0.60;0.47;;;;;;;;;;5062188;27;87069;-59
2022/12/28 06:53:48;;;;;;;0.97;0.50;;;;;;;;;;5061463;27;88969;-59
2022/12/28 06:56:17;;;;;;;0.30;0.30;;;;;;;;;;5062024;27;87984;-59
2022/12/28 06:58:45;;;;;;;0.57;0.57;;;;;;;;;;5061176;27;87103;-59
2022/12/28 07:01:15;;;;;;;0.77;0.37;;;;;;;;;;5061721;27;86953;-59
2022/12/28 07:03:44;;;;;;;0.50;0.50;;;;;;;;;;5061275;27;89339;-58
2022/12/28 07:06:12;;;;;;;0.40;0.40;;;;;;;;;;5061362;27;89333;-59
2022/12/28 07:08:41;;;;;;;0.53;0.47;;;;;;;;;;5061345;27;86988;-59
2022/12/28 07:11:10;;;;;;;0.70;0.63;;;;;;;;;;5061767;27;87030;-59
2022/12/28 07:13:38;;;;;;;0.40;0.40;;;;;;;;;;5061545;27;89087;-59
2022/12/28 07:16:07;;;;;;;0.40;0.40;;;;;;;;;;5061749;27;88934;-59
2022/12/28 07:18:37;;;;;;;0.63;0.50;;;;;;;;;;5062256;27;86911;-59
2022/12/28 07:21:06;;;;;;;0.93;0.40;;;;;;;;;;5062243;27;86432;-59
2022/12/28 07:23:35;;;;;;;0.30;0.30;;;;;;;;;;5061287;27;89205;-59
2022/12/28 07:26:04;;;;;;;0.63;0.63;;;;;;;;;;5061511;27;87916;-59
2022/12/28 07:28:33;;;;;;;0.70;0.43;;;;;;;;;;5061624;27;87940;-59
2022/12/28 07:31:05;;;;;;;1.57;0.40;;;;;;;;;;5060899;27;87128;-59
2022/12/28 07:33:34;;;;;;;0.40;0.40;;;;;;;;;;5061490;27;88567;-59
2022/12/28 07:36:04;;;;;;;0.70;0.70;;;;;;;;;;5061460;27;87097;-59
2022/12/28 07:38:32;;;;;;;0.63;0.53;;;;;;;;;;5061296;27;87056;-59
2022/12/28 07:41:02;;;;;;;0.30;0.30;;;;;;;;;;5060889;27;87199;-59
2022/12/28 07:43:30;;;;;;;0.40;0.40;;;;;;;;;;5063026;27;87891;-59
2022/12/28 07:46:02;;;;;;;0.40;0.40;;;;;;;;;;5065292;27;87881;-59
2022/12/28 07:48:31;;;;;;;0.30;0.30;;;;;;;;;;5064966;27;87062;-59
2022/12/28 07:51:07;;;;;;;0.50;0.30;;;;;;;;;;5065089;27;86976;-61
2022/12/28 07:53:35;;;;;;;0.40;0.40;;;;;;;;;;5064078;27;89955;-59
2022/12/28 07:56:03;;;;;;;0.37;0.37;;;;;;;;;;5064560;27;88874;-59
2022/12/28 07:58:32;;;;;;;0.40;0.40;;;;;;;;;;5064661;27;87029;-59
2022/12/28 08:01:04;;;;;;;0.40;0.40;;;;;;;;;;5064317;27;86985;-59
2022/12/28 08:03:33;;;;;;;0.40;0.40;;;;;;;;;;5064776;27;88166;-59
2022/12/28 08:06:09;;;;;;;2.90;0.47;;;;;;;;;;5064129;27;87463;-59
2022/12/28 08:08:38;;;;;;;0.30;0.30;;;;;;;;;;5064943;27;87121;-59
2022/12/28 08:11:07;;;;;;;0.30;0.30;;;;;;;;;;5064948;27;86279;-59
2022/12/28 08:13:35;;;;;;;0.50;0.50;;;;;;;;;;5064502;27;87161;-59
2022/12/28 08:16:04;;;;;;;0.37;0.37;;;;;;;;;;5064692;27;88915;-59
2022/12/28 08:18:32;;;;;;;0.37;0.37;;;;;;;;;;5063953;27;88502;-59
2022/12/28 08:21:01;;;;;;;0.30;0.30;;;;;;;;;;5064199;27;86915;-59
2022/12/28 08:23:31;;;;;;;0.50;0.50;;;;;;;;;;5063637;27;86985;-59
2022/12/28 08:26:05;;;;;;;0.60;0.50;;;;;;;;;;5064080;27;86941;-59
2022/12/28 08:28:33;;;;;;;0.70;0.60;;;;;;;;;;5063980;27;86994;-59
2022/12/28 08:31:05;;;;;;;0.50;0.50;;;;;;;;;;5064216;27;87048;-59
2022/12/28 08:33:33;;;;;;;0.50;0.37;;;;;;;;;;5063723;27;88408;-59
2022/12/28 08:36:02;;;;;;;0.20;0.20;;;;;;;;;;5064079;27;87579;-59
2022/12/28 08:38:32;;;;;;;0.50;0.50;;;;;;;;;;5063583;27;87447;-59
2022/12/28 08:41:01;;;;;;;0.30;0.30;;;;;;;;;;5063764;27;87174;-59
2022/12/28 08:43:29;;;;;;;0.23;0.23;;;;;;;;;;5063200;27;89949;-59
2022/12/28 08:45:58;;;;;;;0.30;0.30;;;;;;;;;;5063997;27;88692;-59
2022/12/28 08:48:27;;;;;;;0.43;0.40;;;;;;;;;;5063664;27;89384;-61
2022/12/28 08:50:56;;;;;;;0.30;0.30;;;;;;;;;;5064024;27;87067;-59
2022/12/28 08:53:24;;;;;;;0.40;0.40;;;;;;;;;;5063555;27;89094;-59
2022/12/28 08:55:54;;;;;;;0.40;0.40;;;;;;;;;;5063318;27;88969;-60
2022/12/28 08:58:22;;;;;;;0.93;0.30;;;;;;;;;;5064225;27;86961;-59
2022/12/28 09:00:50;;;;;;;0.60;0.60;;;;;;;;;;5064428;27;86322;-59
2022/12/28 09:03:18;;;;;;;0.33;0.33;;;;;;;;;;5063746;27;88150;-59
2022/12/28 09:05:47;;;;;;;0.40;0.40;;;;;;;;;;5063681;27;89225;-59
2022/12/28 09:08:21;;;;;;;0.23;0.23;;;;;;;;;;5063562;27;87878;-59
2022/12/28 09:10:50;;;;;;;0.30;0.30;;;;;;;;;;5063257;27;87069;-60
2022/12/28 09:13:19;;;;;;;0.40;0.40;;;;;;;;;;5063347;27;88102;-59
2022/12/28 09:15:56;;;;;;;0.30;0.30;;;;;;;;;;5063561;27;88923;-59
2022/12/28 09:18:24;;;;;;;0.30;0.30;;;;;;;;;;5063929;27;86848;-59
2022/12/28 09:20:52;;;;;;;1.50;0.37;;;;;;;;;;5063388;27;88072;-61
2022/12/28 09:23:21;;;;;;;0.30;0.30;;;;;;;;;;5062539;27;89279;-59
2022/12/28 09:25:49;;;;;;;0.30;0.30;;;;;;;;;;5063389;27;87809;-62
2022/12/28 09:28:17;;;;;;;0.20;0.20;;;;;;;;;;5063702;27;86726;-61
2022/12/28 09:30:47;;;;;;;1.60;0.50;;;;;;;;;;5063536;27;87206;-61
2022/12/28 09:36:21;;;;;;;0.40;0.40;;;;;;;;;;5062797;27;91516;-61
2022/12/28 09:38:50;;;;;;;0.40;0.40;;;;;;;;;;5063115;27;86927;-61
2022/12/28 09:41:21;;;;;;;0.23;0.20;;;;;;;;;;5062694;27;87100;-61
2022/12/28 09:43:50;;;;;;;2.00;0.40;;;;;;;;;;5062749;27;89169;-61
2022/12/28 09:46:20;;;;;;;0.77;0.40;;;;;;;;;;5062833;27;87813;-60
2022/12/28 09:48:49;;;;;;;0.40;0.40;;;;;;;;;;5062904;27;87000;-61
2022/12/28 09:51:17;;;;;;;3.90;0.60;;;;;;;;;;5063494;27;86443;-61
2022/12/28 09:53:46;;;;;;;0.30;0.30;;;;;;;;;;5062496;27;88963;-61
2022/12/28 09:56:19;;;;;;;0.73;0.47;;;;;;;;;;5063039;27;87872;-59
2022/12/28 09:58:48;;;;;;;0.97;0.50;;;;;;;;;;5062437;27;87961;-61
2022/12/28 10:01:17;;;;;;;0.40;0.40;;;;;;;;;;5062204;27;87642;-61
2022/12/28 10:03:46;;;;;;;0.67;0.47;;;;;;;;;;5062564;27;89169;-61
2022/12/28 10:06:15;;;;;;;1.80;0.40;;;;;;;;;;5061746;27;89015;-61
2022/12/28 10:08:45;;;;;;;0.30;0.20;;;;;;;;;;5062619;27;86854;-61
2022/12/28 10:11:14;;;;;;;0.30;0.30;;;;;;;;;;5062433;27;86917;-61
2022/12/28 10:13:42;;;;;;;0.30;0.30;;;;;;;;;;5062365;27;89158;-61
2022/12/28 10:16:26;;;;;;;0.40;0.40;;;;;;;;;;5062410;27;88847;-59
2022/12/28 10:18:56;;;;;;;1.30;0.40;;;;;;;;;;5062705;27;86832;-60
2022/12/28 10:21:25;;;;;;;0.13;0.13;;;;;;;;;;5062559;27;86919;-60
2022/12/28 10:24:00;;;;;;;1.80;0.30;;;;;;;;;;5061621;27;88860;-60
2022/12/28 10:26:48;;;;;;;2.73;0.43;;;;;;;;;;5062257;27;88490;-60
2022/12/28 10:29:18;;;;;;;0.30;0.30;;;;;;;;;;5062464;27;87089;-60
2022/12/28 10:31:56;;;;;;;0.20;0.20;;;;;;;;;;5062131;27;87081;-60
2022/12/28 10:34:26;;;;;;;0.87;0.47;;;;;;;;;;5062387;27;88590;-59
2022/12/28 10:37:04;;;;;;;0.57;0.57;;;;;;;;;;5062205;27;89184;-59
2022/12/28 10:39:33;;;;;;;0.40;0.40;;;;;;;;;;5062031;27;87054;-60
2022/12/28 10:42:02;;;;;;;0.30;0.30;;;;;;;;;;5062544;27;86304;-60
2022/12/28 10:44:31;;;;;;;0.30;0.30;;;;;;;;;;5061777;27;88102;-59
2022/12/28 10:47:16;;;;;;;0.30;0.30;;;;;;;;;;5061685;27;89018;-59
2022/12/28 10:49:49;;;;;;;0.60;0.60;;;;;;;;;;5061537;27;87805;-60
2022/12/28 10:52:38;;;;;;;0.60;0.40;;;;;;;;;;5061671;27;86967;-59
2022/12/28 10:55:18;;;;;;;0.30;0.30;;;;;;;;;;5062246;27;88161;-59
2022/12/28 10:57:47;;;;;;;0.70;0.70;;;;;;;;;;5061956;27;87841;-60
2022/12/28 11:00:35;;;;;;;0.60;0.60;;;;;;;;;;5061708;27;86987;-59
2022/12/28 11:03:09;;;;;;;3.43;0.70;;;;;;;;;;5061274;27;87016;-59
2022/12/28 11:05:39;;;;;;;0.37;0.30;;;;;;;;;;5061425;27;89015;-60
2022/12/28 11:08:07;;;;;;;1.27;0.50;;;;;;;;;;5062051;27;88901;-60
2022/12/28 11:10:36;;;;;;;0.63;0.63;;;;;;;;;;5061807;27;87803;-60
2022/12/28 11:13:06;;;;;;;0.40;0.40;;;;;;;;;;5061390;27;86906;-60
2022/12/28 11:15:34;;;;;;;0.53;0.43;;;;;;;;;;5061138;27;90195;-60
2022/12/28 11:18:07;;;;;;;0.50;0.50;;;;;;;;;;5062742;27;89784;-61
2022/12/28 11:20:37;;;;;;;2.00;0.60;;;;;;;;;;5065384;27;87043;-60
2022/12/28 11:23:06;;;;;;;0.30;0.30;;;;;;;;;;5065027;27;86809;-60
2022/12/28 11:25:35;;;;;;;0.30;0.30;;;;;;;;;;5064742;27;89339;-60
2022/12/28 11:28:05;;;;;;;0.47;0.47;;;;;;;;;;5064742;27;88782;-60
2022/12/28 11:30:34;;;;;;;0.40;0.40;;;;;;;;;;5065590;27;87021;-60
2022/12/28 11:33:03;;;;;;;1.53;0.53;;;;;;;;;;5065683;27;86526;-60
2022/12/28 11:35:32;;;;;;;0.40;0.40;;;;;;;;;;5064474;27;89254;-60
2022/12/28 11:38:01;;;;;;;0.47;0.30;;;;;;;;;;5064694;27;87819;-60
2022/12/28 11:40:48;;;;;;;0.53;0.53;;;;;;;;;;5064372;27;87967;-61
2022/12/28 11:43:38;;;;;;;0.40;0.40;;;;;;;;;;5051476;27;87099;-60
2022/12/28 11:46:08;;;;;;;0.57;0.57;;;;;;;;;;5064320;27;89398;-60
2022/12/28 11:48:55;;;;;;;0.40;0.40;;;;;;;;;;5064466;27;87852;-60
2022/12/28 11:51:23;;;;;;;1.07;0.60;;;;;;;;;;5051686;27;86808;-60
2022/12/28 11:53:53;;;;;;;0.53;0.30;;;;;;;;;;5064314;27;88040;-60
2022/12/28 11:56:21;;;;;;;0.40;0.40;;;;;;;;;;5064601;27;89207;-60
2022/12/28 11:59:06;;;;;;;3.17;1.23;;;;;;;;;;5064901;27;87920;-60
2022/12/28 12:01:43;;;;;;;1.50;0.40;;;;;;;;;;5064489;27;87018;-60
2022/12/28 12:04:18;;;;;;;1.77;0.37;;;;;;;;;;5065058;27;87057;-60
2022/12/28 12:07:05;;;;;;;0.50;0.40;;;;;;;;;;5064093;27;90774;-60
2022/12/28 12:09:42;;;;;;;0.47;0.47;;;;;;;;;;5064146;27;87656;-60
2022/12/28 12:12:29;;;;;;;0.70;0.70;;;;;;;;;;5064073;27;87045;-60
2022/12/28 12:14:58;;;;;;;0.40;0.40;;;;;;;;;;5064558;27;87032;-60
2022/12/28 12:17:30;;;;;;;0.73;0.57;;;;;;;;;;5064351;27;89355;-60
2022/12/28 12:19:59;;;;;;;0.87;0.30;;;;;;;;;;5064350;27;87787;-60
2022/12/28 12:22:29;;;;;;;0.40;0.40;;;;;;;;;;5063968;27;87001;-60
2022/12/28 12:24:58;;;;;;;0.83;0.60;;;;;;;;;;5064725;27;86168;-61
2022/12/28 12:27:31;;;;;;;0.33;0.33;;;;;;;;;;5063880;27;88201;-60
2022/12/28 12:30:00;;;;;;;1.13;0.60;;;;;;;;;;5062788;27;88910;-60
2022/12/28 12:32:31;;;;;;;0.63;0.33;;;;;;;;;;5063713;27;87985;-60
2022/12/28 12:35:00;;;;;;;0.60;0.60;;;;;;;;;;5064158;27;87032;-60
2022/12/28 12:37:36;;;;;;;0.40;0.40;;;;;;;;;;5063801;27;89165;-60
2022/12/28 12:40:10;;;;;;;0.97;0.57;;;;;;;;;;5064047;27;88947;-60
2022/12/28 12:42:41;;;;;;;0.40;0.40;;;;;;;;;;5064028;27;87022;-60
2022/12/28 12:45:13;;;;;;;0.50;0.50;;;;;;;;;;5063980;27;87006;-60
2022/12/28 12:47:51;;;;;;;0.43;0.43;;;;;;;;;;5063458;27;89034;-59
2022/12/28 12:50:21;;;;;;;1.80;0.63;;;;;;;;;;5063880;27;88925;-60
2022/12/28 12:52:54;;;;;;;0.30;0.30;;;;;;;;;;5063776;27;86994;-60
2022/12/28 12:55:24;;;;;;;0.50;0.50;;;;;;;;;;5063665;27;87064;-59
2022/12/28 12:57:56;;;;;;;0.53;0.40;;;;;;;;;;5062476;27;90049;-59
2022/12/28 13:00:25;;;;;;;0.47;0.47;;;;;;;;;;5063718;27;88809;-60
2022/12/28 13:03:11;;;;;;;1.83;0.50;;;;;;;;;;5063253;27;87063;-59
2022/12/28 13:05:42;;;;;;;0.33;0.33;;;;;;;;;;5050058;27;88114;-59
2022/12/28 13:08:14;;;;;;;0.80;0.60;;;;;;;;;;5063261;27;87964;-59
2022/12/28 13:10:43;;;;;;;3.70;1.03;;;;;;;;;;5063001;27;89003;-59
2022/12/28 13:13:16;;;;;;;0.43;0.43;;;;;;;;;;5063451;27;87133;-59
2022/12/28 13:15:44;;;;;;;0.43;0.43;;;;;;;;;;5063906;27;86166;-59
2022/12/28 13:18:16;;;;;;;0.50;0.50;;;;;;;;;;5063162;27;89428;-59
2022/12/28 13:21:06;;;;;;;2.73;0.30;;;;;;;;;;5063059;27;89937;-59
2022/12/28 13:23:43;;;;;;;2.23;0.67;;;;;;;;;;5062318;27;87960;-59
2022/12/28 13:26:11;;;;;;;1.00;0.90;;;;;;;;;;5062713;27;87066;-60
2022/12/28 13:28:39;;;;;;;0.40;0.40;;;;;;;;;;5062868;27;89115;-60
2022/12/28 13:31:09;;;;;;;0.40;0.37;;;;;;;;;;5062808;27;88942;-59
2022/12/28 13:33:38;;;;;;;0.70;0.57;;;;;;;;;;5063132;27;87067;-59
2022/12/28 13:36:13;;;;;;;0.73;0.60;;;;;;;;;;5063082;27;87077;-59
2022/12/28 13:38:41;;;;;;;0.63;0.53;;;;;;;;;;5062825;27;89303;-59
2022/12/28 13:41:17;;;;;;;0.60;0.50;;;;;;;;;;5062577;27;88233;-59
2022/12/28 13:43:51;;;;;;;0.50;0.50;;;;;;;;;;5062298;27;86932;-60
2022/12/28 13:46:20;;;;;;;0.50;0.50;;;;;;;;;;5062875;27;87081;-60
2022/12/28 13:48:51;;;;;;;0.40;0.40;;;;;;;;;;5062098;27;88488;-59
2022/12/28 13:51:20;;;;;;;2.37;0.90;;;;;;;;;;5062709;27;89894;-60
2022/12/28 13:53:50;;;;;;;3.10;0.60;;;;;;;;;;5062532;27;87136;-60
2022/12/28 13:56:18;;;;;;;0.90;0.60;;;;;;;;;;5062559;27;87103;-60
2022/12/28 13:58:50;;;;;;;0.40;0.40;;;;;;;;;;5062409;27;89260;-59
2022/12/28 14:01:20;;;;;;;0.73;0.70;;;;;;;;;;5062218;27;88997;-59
2022/12/28 14:03:49;;;;;;;0.60;0.60;;;;;;;;;;5062571;27;87019;-59
2022/12/28 14:06:18;;;;;;;0.47;0.47;;;;;;;;;;5062835;27;86249;-60
2022/12/28 14:08:47;;;;;;;0.50;0.40;;;;;;;;;;5062028;27;89484;-60
2022/12/28 14:11:16;;;;;;;0.50;0.50;;;;;;;;;;5061745;27;87778;-60
2022/12/28 14:13:44;;;;;;;0.33;0.30;;;;;;;;;;5061953;27;87952;-59
2022/12/28 14:16:13;;;;;;;0.33;0.33;;;;;;;;;;5062499;27;87025;-60
2022/12/28 14:18:41;;;;;;;2.93;0.60;;;;;;;;;;5062131;27;88865;-60
2022/12/28 14:21:10;;;;;;;0.63;0.30;;;;;;;;;;5062078;27;88145;-60
2022/12/28 14:23:38;;;;;;;0.43;0.33;;;;;;;;;;5061716;27;87068;-60
2022/12/28 14:26:08;;;;;;;0.93;0.47;;;;;;;;;;5062038;27;87072;-60
2022/12/28 14:28:37;;;;;;;0.40;0.40;;;;;;;;;;5061546;27;88673;-60
2022/12/28 14:31:06;;;;;;;0.50;0.47;;;;;;;;;;5062212;27;87937;-61
2022/12/28 14:33:35;;;;;;;0.60;0.60;;;;;;;;;;5061663;27;87015;-60
2022/12/28 14:36:04;;;;;;;0.47;0.47;;;;;;;;;;5061857;27;86901;-60
2022/12/28 14:38:33;;;;;;;1.07;0.50;;;;;;;;;;5061424;27;90000;-60
2022/12/28 14:41:01;;;;;;;1.10;0.50;;;;;;;;;;5061951;27;88676;-59
2022/12/28 14:43:31;;;;;;;0.30;0.30;;;;;;;;;;5061913;27;87058;-62
2022/12/28 14:46:14;;;;;;;1.03;1.00;;;;;;;;;;5061855;27;87125;-62
2022/12/28 14:48:44;;;;;;;0.57;0.57;;;;;;;;;;5061570;27;89266;-62
2022/12/28 14:51:25;;;;;;;0.40;0.20;;;;;;;;;;5062214;27;87817;-62
2022/12/28 14:54:13;;;;;;;0.63;0.60;;;;;;;;;;5061486;27;86955;-62
2022/12/28 14:56:41;;;;;;;0.43;0.43;;;;;;;;;;5062759;27;86302;-62
2022/12/28 14:59:16;;;;;;;0.50;0.50;;;;;;;;;;5061785;27;88097;-62
2022/12/28 15:01:45;;;;;;;0.60;0.40;;;;;;;;;;5062155;27;88857;-62
2022/12/28 15:04:25;;;;;;;0.80;0.77;;;;;;;;;;5061597;27;87778;-62
2022/12/28 15:06:53;;;;;;;0.90;0.77;;;;;;;;;;5061463;27;87029;-61
2022/12/28 15:09:22;;;;;;;0.93;0.50;;;;;;;;;;5061809;27;88065;-62
2022/12/28 15:11:50;;;;;;;0.90;0.67;;;;;;;;;;5062190;27;88718;-62
2022/12/28 15:14:20;;;;;;;0.50;0.50;;;;;;;;;;5062139;27;87052;-59
2022/12/28 15:16:49;;;;;;;1.50;0.63;;;;;;;;;;5061464;27;87065;-62
2022/12/28 15:19:17;;;;;;;2.57;0.87;;;;;;;;;;5061193;27;88277;-62
2022/12/28 15:21:46;;;;;;;0.70;0.70;;;;;;;;;;5061713;27;88053;-61
2022/12/28 15:24:14;;;;;;;2.00;1.00;;;;;;;;;;5061107;27;86879;-61
2022/12/28 15:26:48;;;;;;;2.77;1.27;;;;;;;;;;5061381;27;87015;-62
2022/12/28 15:29:16;;;;;;;1.63;1.10;;;;;;;;;;5060432;27;90510;-61
2022/12/28 15:32:06;;;;;;;1.27;1.17;;;;;;;;;;5061183;27;88360;-62
2022/12/28 15:34:35;;;;;;;1.80;0.80;;;;;;;;;;5061016;27;87045;-61
2022/12/28 15:37:03;;;;;;;2.93;1.23;;;;;;;;;;5061117;27;87094;-62